Time;durP1;ratioP1;P1;durP2;ratioP2;P2;SDS_P1;SDS_P2;PMS_P1;PMS_P2;Temp;Humidity;BMP_temperature;BMP_pressure;BME280_temperature;BME280_humidity;BME280_pressure;Samples;Min_cycle;Max_cycle;Signal;HPM_P1;HPM_P2
2022/02/16 00:09:16;;;;;;;0.90;0.30;;;8.60;99.90;;;;;;6726580;88;20202;-79
2022/02/16 00:19:16;;;;;;;1.48;0.20;;;8.60;99.90;;;;;;6726102;88;20226;-79
2022/02/16 00:29:17;;;;;;;0.93;0.20;;;8.50;99.90;;;;;;6724836;88;20211;-79
2022/02/16 00:39:18;;;;;;;0.80;0.30;;;8.50;99.90;;;;;;6725315;88;20217;-79
2022/02/16 00:49:19;;;;;;;0.43;0.20;;;8.40;99.90;;;;;;6726879;88;20219;-79
2022/02/16 00:59:19;;;;;;;0.93;0.20;;;8.40;99.90;;;;;;6726341;88;20692;-79
2022/02/16 01:09:20;;;;;;;0.62;0.22;;;8.40;99.90;;;;;;6726000;88;20190;-79
2022/02/16 01:19:21;;;;;;;0.50;0.20;;;8.30;99.90;;;;;;6726778;88;20198;-80
2022/02/16 01:29:23;;;;;;;1.27;0.20;;;8.60;99.90;;;;;;6726623;88;20181;-79
2022/02/16 01:39:24;;;;;;;0.37;0.10;;;8.50;99.90;;;;;;6723002;88;20206;-80
2022/02/16 01:49:24;;;;;;;0.90;0.20;;;8.60;99.90;;;;;;6738843;88;20170;-80
2022/02/16 01:59:25;;;;;;;0.45;0.20;;;8.60;99.90;;;;;;6738980;88;20211;-80
2022/02/16 02:09:26;;;;;;;0.62;0.20;;;8.60;99.90;;;;;;6711029;88;20197;-80
2022/02/16 02:19:26;;;;;;;0.50;0.20;;;8.70;99.90;;;;;;6711878;88;20713;-79
2022/02/16 02:29:27;;;;;;;0.30;0.10;;;8.70;99.90;;;;;;6711395;88;20278;-80
2022/02/16 02:39:28;;;;;;;0.20;0.10;;;8.60;99.90;;;;;;6711571;88;20301;-80
2022/02/16 02:49:28;;;;;;;0.30;0.10;;;8.60;99.90;;;;;;6710502;88;20212;-79
2022/02/16 02:59:29;;;;;;;0.40;0.10;;;8.50;99.90;;;;;;6707598;88;20206;-79
2022/02/16 03:09:29;;;;;;;0.28;0.17;;;8.60;99.90;;;;;;6710224;88;20213;-79
2022/02/16 03:19:30;;;;;;;0.37;0.10;;;8.70;99.90;;;;;;6710896;88;20324;-80
2022/02/16 03:29:31;;;;;;;0.30;0.10;;;8.80;99.90;;;;;;6710213;88;20273;-80
2022/02/16 03:39:32;;;;;;;0.25;0.10;;;8.90;99.90;;;;;;6711745;88;20199;-80
2022/02/16 03:49:32;;;;;;;0.15;0.10;;;8.90;99.90;;;;;;6712138;88;20206;-80
2022/02/16 03:59:33;;;;;;;0.68;0.10;;;8.90;99.90;;;;;;6710823;88;20657;-80
2022/02/16 04:09:34;;;;;;;1.33;0.10;;;9.00;99.90;;;;;;6709264;88;20193;-80
2022/02/16 04:19:34;;;;;;;0.60;0.15;;;9.00;99.90;;;;;;6711279;88;20209;-80
2022/02/16 04:29:35;;;;;;;0.28;0.10;;;9.10;99.90;;;;;;6710549;88;20320;-79
2022/02/16 04:39:36;;;;;;;0.20;0.10;;;9.10;99.90;;;;;;6705423;88;20194;-79
2022/02/16 04:49:36;;;;;;;0.45;0.17;;;9.20;99.90;;;;;;6709553;88;20224;-80
2022/02/16 04:59:37;;;;;;;0.93;0.17;;;9.30;99.90;;;;;;6706227;88;20676;-79
2022/02/16 05:09:37;;;;;;;0.30;0.10;;;9.30;99.90;;;;;;6708712;88;20322;-79
2022/02/16 05:19:38;;;;;;;0.52;0.10;;;9.30;99.90;;;;;;6710792;88;20260;-79
2022/02/16 05:29:38;;;;;;;0.80;0.20;;;9.30;99.90;;;;;;6711045;88;20199;-79
2022/02/16 05:39:39;;;;;;;0.40;0.10;;;9.30;99.90;;;;;;6716169;88;20311;-80
2022/02/16 05:49:40;;;;;;;0.37;0.10;;;9.30;99.90;;;;;;6718086;88;20189;-79
2022/02/16 05:59:40;;;;;;;0.50;0.20;;;9.20;99.90;;;;;;6714983;88;20214;-80
2022/02/16 06:09:41;;;;;;;0.10;0.10;;;9.30;99.90;;;;;;6718436;88;20204;-79
2022/02/16 06:19:41;;;;;;;2.50;0.13;;;9.40;99.90;;;;;;6719636;88;20268;-79
2022/02/16 06:29:42;;;;;;;0.30;0.10;;;9.40;99.90;;;;;;6716489;88;20202;-80
2022/02/16 06:39:43;;;;;;;0.70;0.10;;;9.30;99.90;;;;;;6721017;88;20377;-80
2022/02/16 06:49:43;;;;;;;1.20;0.10;;;9.30;99.90;;;;;;6718799;88;20197;-80
2022/02/16 06:59:44;;;;;;;0.32;0.13;;;9.20;99.90;;;;;;6728309;88;20199;-81
2022/02/16 07:09:44;;;;;;;0.60;0.10;;;9.50;99.90;;;;;;6724801;88;20198;-79
2022/02/16 07:19:46;;;;;;;0.62;0.10;;;9.60;99.90;;;;;;6718917;88;20182;-81
2022/02/16 07:29:47;;;;;;;0.25;0.10;;;9.80;99.90;;;;;;6736906;88;20185;-79
2022/02/16 07:39:48;;;;;;;0.65;0.20;;;10.00;99.90;;;;;;6729826;88;20186;-78
2022/02/16 07:49:48;;;;;;;0.52;0.15;;;10.00;99.90;;;;;;6728714;88;20286;-77
2022/02/16 07:59:49;;;;;;;1.27;0.30;;;10.00;99.90;;;;;;6723933;88;20215;-78
2022/02/16 08:09:49;;;;;;;0.20;0.10;;;10.10;99.90;;;;;;6723973;88;20246;-78
2022/02/16 08:19:51;;;;;;;0.20;0.10;;;10.30;99.90;;;;;;6727785;88;20653;-78
2022/02/16 08:29:51;;;;;;;0.05;0.05;;;10.40;99.90;;;;;;6727056;88;20387;-79
2022/02/16 08:39:52;;;;;;;0.10;0.10;;;10.50;99.90;;;;;;6720987;88;20754;-77
2022/02/16 08:49:52;;;;;;;2.10;0.10;;;10.60;99.90;;;;;;6703858;88;20198;-76
2022/02/16 08:59:53;;;;;;;0.20;0.10;;;10.90;99.90;;;;;;6705236;88;20216;-77
2022/02/16 09:09:55;;;;;;;0.20;0.10;;;11.00;99.90;;;;;;6716900;88;20233;-77
2022/02/16 09:19:56;;;;;;;0.25;0.10;;;11.40;99.90;;;;;;6720692;88;20189;-78
2022/02/16 09:29:57;;;;;;;0.00;0.00;;;11.50;99.90;;;;;;6733464;88;20181;-78
2022/02/16 09:39:58;;;;;;;0.20;0.10;;;11.80;99.90;;;;;;6735811;88;20205;-77
2022/02/16 09:50:00;;;;;;;0.10;0.00;;;12.30;99.90;;;;;;6709409;88;20238;-77
2022/02/16 10:00:01;;;;;;;0.22;0.10;;;12.60;99.90;;;;;;6704781;88;20231;-78
2022/02/16 10:10:14;;;;;;;0.03;0.00;;;12.80;99.90;;;;;;6704496;88;20573;-77
2022/02/16 10:20:19;;;;;;;0.10;0.10;;;13.20;99.90;;;;;;6705314;88;20214;-78
2022/02/16 10:30:20;;;;;;;0.75;0.10;;;13.10;99.90;;;;;;6714158;88;20179;-79
2022/02/16 10:40:21;;;;;;;0.30;0.10;;;13.20;99.90;;;;;;6717050;88;20699;-77
2022/02/16 10:50:25;;;;;;;0.10;0.10;;;13.40;99.90;;;;;;6718477;88;20209;-78
2022/02/16 11:00:30;;;;;;;0.40;0.10;;;13.80;99.90;;;;;;6719405;88;20221;-78
2022/02/16 11:10:31;;;;;;;0.97;0.20;;;13.90;99.90;;;;;;6721997;88;20204;-78
2022/02/16 11:20:32;;;;;;;0.20;0.10;;;13.90;99.90;;;;;;6722556;88;20214;-78
2022/02/16 11:30:35;;;;;;;0.45;0.10;;;13.90;99.90;;;;;;6722816;88;20189;-78
2022/02/16 11:40:43;;;;;;;0.40;0.20;;;14.20;99.90;;;;;;6722576;88;20303;-77
2022/02/16 11:50:43;;;;;;;0.45;0.20;;;14.30;99.90;;;;;;6707049;88;20228;-78
2022/02/16 12:01:25;;;;;;;0.22;0.10;;;14.40;99.90;;;;;;6730040;77;20760;-78
2022/02/16 12:11:29;;;;;;;0.40;0.20;;;14.30;99.90;;;;;;6716784;88;20398;-78
2022/02/16 12:21:38;;;;;;;0.60;0.20;;;14.50;99.90;;;;;;6695913;88;20187;-78
2022/02/16 12:31:42;;;;;;;0.90;0.20;;;14.70;99.90;;;;;;6701882;88;20231;-78
2022/02/16 12:41:46;;;;;;;0.50;0.20;;;14.90;99.90;;;;;;6700622;88;20194;-77
2022/02/16 12:51:48;;;;;;;0.50;0.20;;;14.90;99.90;;;;;;6694957;88;20197;-78
2022/02/16 13:01:51;;;;;;;0.98;0.40;;;14.90;99.90;;;;;;6694733;88;20624;-78
2022/02/16 13:11:58;;;;;;;0.40;0.20;;;15.10;99.90;;;;;;6694816;88;20274;-77
2022/02/16 13:22:03;;;;;;;1.00;0.32;;;14.90;99.90;;;;;;6702756;88;20187;-79
2022/02/16 13:32:04;;;;;;;1.07;0.20;;;15.30;99.90;;;;;;6698571;88;20202;-78
2022/02/16 13:42:05;;;;;;;3.00;0.30;;;15.10;99.90;;;;;;6699113;88;20210;-78
2022/02/16 13:52:11;;;;;;;1.48;0.30;;;14.90;99.90;;;;;;6700044;88;20311;-79
2022/02/16 14:02:15;;;;;;;1.65;0.40;;;14.90;99.90;;;;;;6699332;88;20207;-78
2022/02/16 14:12:15;;;;;;;3.10;0.60;;;14.90;99.90;;;;;;6702559;88;20705;-78
2022/02/16 14:22:16;;;;;;;1.85;0.50;;;14.80;99.90;;;;;;6699094;88;20601;-78
2022/02/16 14:32:18;;;;;;;2.62;0.50;;;14.80;99.90;;;;;;6700193;88;20214;-78
2022/02/16 14:42:19;;;;;;;2.65;0.50;;;14.80;99.90;;;;;;6700669;88;20238;-79
2022/02/16 14:52:19;;;;;;;3.17;0.60;;;14.80;99.90;;;;;;6700098;88;20219;-79
2022/02/16 15:02:20;;;;;;;1.73;0.50;;;14.80;99.90;;;;;;6699140;88;20202;-79
2022/02/16 15:12:21;;;;;;;2.25;0.60;;;14.80;99.90;;;;;;6699033;88;20606;-78
2022/02/16 15:22:21;;;;;;;2.87;0.70;;;14.80;99.90;;;;;;6701948;88;20190;-79
2022/02/16 15:32:22;;;;;;;3.40;0.60;;;14.80;99.90;;;;;;6698944;88;20321;-79
2022/02/16 15:42:23;;;;;;;5.78;0.75;;;14.80;99.90;;;;;;6697498;88;20194;-78
2022/02/16 15:52:23;;;;;;;2.95;0.60;;;14.90;99.90;;;;;;6701147;88;20673;-77
2022/02/16 16:02:26;;;;;;;2.78;0.60;;;14.80;99.90;;;;;;6699106;88;20215;-77
2022/02/16 16:12:27;;;;;;;3.47;0.90;;;15.40;99.90;;;;;;6697967;88;20363;-78
2022/02/16 16:22:30;;;;;;;5.25;1.05;;;15.20;99.90;;;;;;6701448;88;20213;-78
2022/02/16 16:32:31;;;;;;;4.70;1.25;;;14.80;99.90;;;;;;6701167;88;20212;-78
2022/02/16 16:42:37;;;;;;;4.53;1.05;;;14.50;99.90;;;;;;6701730;88;20203;-77
2022/02/16 16:52:39;;;;;;;5.60;1.17;;;14.40;99.90;;;;;;6712172;88;20194;-76
2022/02/16 17:02:40;;;;;;;4.62;1.35;;;14.30;99.90;;;;;;6716896;88;20251;-78
2022/02/16 17:12:44;;;;;;;7.00;1.05;;;14.20;99.90;;;;;;6725506;88;20295;-80
2022/02/16 17:22:48;;;;;;;4.73;1.10;;;14.00;99.90;;;;;;6720321;88;20359;-78
2022/02/16 17:33:06;;;;;;;2.60;0.90;;;13.80;99.90;;;;;;6721084;88;20254;-78
2022/02/16 17:43:07;;;;;;;3.78;1.10;;;13.70;99.90;;;;;;6720737;88;20210;-78
2022/02/16 17:53:11;;;;;;;3.17;0.97;;;13.90;99.90;;;;;;6727705;88;20303;-79
2022/02/16 18:03:13;;;;;;;3.67;0.98;;;14.00;99.90;;;;;;6712668;77;20311;-76
2022/02/16 18:13:13;;;;;;;1.77;0.43;;;14.10;99.90;;;;;;6718219;88;20614;-77
2022/02/16 18:23:14;;;;;;;0.77;0.30;;;14.20;99.90;;;;;;6710774;88;20215;-76
2022/02/16 18:33:18;;;;;;;0.95;0.32;;;14.30;99.90;;;;;;6708378;88;20249;-74
2022/02/16 18:43:18;;;;;;;0.95;0.30;;;14.40;99.90;;;;;;6714312;88;20692;-76
2022/02/16 18:53:19;;;;;;;0.70;0.20;;;14.50;99.90;;;;;;6712037;88;20204;-75
2022/02/16 19:03:21;;;;;;;1.27;0.20;;;14.50;99.90;;;;;;6710348;88;20343;-74
2022/02/16 19:13:22;;;;;;;0.70;0.30;;;14.50;99.90;;;;;;6707200;88;20178;-75
2022/02/16 19:23:23;;;;;;;1.12;0.30;;;14.60;99.90;;;;;;6710405;88;20565;-75
2022/02/16 19:33:24;;;;;;;0.43;0.20;;;14.60;99.90;;;;;;6713457;88;20729;-73
2022/02/16 19:43:25;;;;;;;0.77;0.30;;;14.90;99.90;;;;;;6708611;88;20177;-76
2022/02/16 19:53:26;;;;;;;0.60;0.20;;;15.00;99.90;;;;;;6709239;88;20197;-75
2022/02/16 20:03:26;;;;;;;0.75;0.30;;;15.10;99.90;;;;;;6715365;88;20742;-76
2022/02/16 20:13:28;;;;;;;0.50;0.17;;;14.90;99.90;;;;;;6712958;88;20368;-75
2022/02/16 20:23:29;;;;;;;0.70;0.30;;;14.90;99.90;;;;;;6708168;88;20301;-75
2022/02/16 20:33:30;;;;;;;0.82;0.20;;;15.00;99.90;;;;;;6710927;88;20948;-76
2022/02/16 20:43:30;;;;;;;1.70;0.20;;;15.10;99.90;;;;;;6706709;88;20198;-75
2022/02/16 20:53:32;;;;;;;0.30;0.10;;;15.30;99.90;;;;;;6710220;88;20657;-76
2022/02/16 21:03:32;;;;;;;0.20;0.13;;;15.40;99.90;;;;;;6710371;88;20603;-75
2022/02/16 21:13:34;;;;;;;0.15;0.10;;;15.60;99.90;;;;;;6718782;88;20194;-76
2022/02/16 21:23:35;;;;;;;0.20;0.10;;;15.60;99.90;;;;;;6705322;88;20182;-76
2022/02/16 21:33:36;;;;;;;0.10;0.10;;;15.10;99.90;;;;;;6701765;88;20256;-76
2022/02/16 21:43:37;;;;;;;0.13;0.10;;;15.20;99.90;;;;;;6712896;88;20431;-76
2022/02/16 21:53:37;;;;;;;0.20;0.10;;;15.30;99.90;;;;;;6711005;88;20194;-76
2022/02/16 22:03:38;;;;;;;0.40;0.10;;;15.30;99.90;;;;;;6709762;88;20194;-76
2022/02/16 22:13:38;;;;;;;0.52;0.20;;;15.40;99.90;;;;;;6709321;88;20341;-76
2022/02/16 22:23:39;;;;;;;0.82;0.20;;;15.30;99.90;;;;;;6713338;88;20182;-76
2022/02/16 22:33:39;;;;;;;0.20;0.10;;;15.50;99.90;;;;;;6713074;88;20197;-74
2022/02/16 22:43:45;;;;;;;0.30;0.10;;;15.50;99.90;;;;;;6711968;88;20344;-75
2022/02/16 22:53:46;;;;;;;0.20;0.10;;;15.50;99.90;;;;;;6711658;88;20315;-75
2022/02/16 23:03:46;;;;;;;0.73;0.30;;;15.50;99.90;;;;;;6715910;88;20275;-75
2022/02/16 23:13:47;;;;;;;0.15;0.10;;;15.40;99.90;;;;;;6719819;88;20289;-74
2022/02/16 23:23:48;;;;;;;0.30;0.13;;;14.70;99.90;;;;;;6711408;88;20736;-75
2022/02/16 23:33:50;;;;;;;0.30;0.10;;;14.00;99.90;;;;;;6722415;88;20181;-75
2022/02/16 23:43:51;;;;;;;0.22;0.10;;;13.90;99.90;;;;;;6722242;88;20795;-75
2022/02/16 23:53:52;;;;;;;0.37;0.10;;;13.70;99.90;;;;;;6712574;88;20320;-75
